Startpagina
METAR-TAF:

METAR-TAF

Vliegvelden :

Luchthaven Diori Hamani

Niamey, Niger

breedte: 13-29N, lengte: 002-10E, hoogte: 223 m

Actueel weer

Dit bericht is 50 minuten geleden gemaakt, om 23:00 UTC
Wind 3 kt uit het zuidwesten
Temperatuur 33°C
Vochtigheid 39%
Druk 1010 hPa
Zicht 10 km of meer
geen wolken onder 1500 m en geen cumulonimbus

METAR: DRRN 212300Z 22003KT CAVOK 33/17 Q1010 NOSIG

Tijdstip: 00:50 (23:50 UTC)

Verwachting

Dit bericht is 50 minuten geleden gemaakt, om 23:00 UTC
Verwachting geldig van 22 om 00 UTC tot 23 om 06 UTC
Wind 8 kt uit het zuidwesten
Zicht 10 km of meer
geen wolken onder 1500 m en geen cumulonimbus
Kans 30% :
Tijdelijke
van 22 om 15 UTC tot 22 om 20 UTC
Weinig wolken op 3300 ft
Weinig wolken op 4000 ft, Cumulonimbus.
onweer

TAF: DRRN 212300Z 2200/2306 22008KT CAVOK PROB30 TEMPO 2215/2220 TS FEW033 FEW040CB

Waarnemingen en weersverwachtingen van meer dan 4000 vliegvelden (METAR en TAF).

De beschikbare stations zijn de gele en rode punten op de kaart.

Ga met uw muis naar het station om de naam te zien.

Klik dan om waarnemingen en weersverwachtingen te zien.

kaart wijzigen: klik op de groene knoppen met een zwart kruis om in te zoomen, op de groene knop met een streepje om uit te zoomen of op de groene pijlen voor aangrenzende kaarten.


METAR-TAF: